Time;durP1;ratioP1;P1;durP2;ratioP2;P2;SDS_P1;SDS_P2;PMS_P1;PMS_P2;Temp;Humidity;BMP_temperature;BMP_pressure;BME280_temperature;BME280_humidity;BME280_pressure;Samples;Min_cycle;Max_cycle;Signal;HPM_P1;HPM_P2
2022/12/09 00:00:06;;;;;;;11.30;7.35;;;4.40;99.90;;;;;;4996037;28;92477;-75
2022/12/09 00:02:33;;;;;;;10.63;7.10;;;4.40;99.90;;;;;;4994349;28;92448;-75
2022/12/09 00:05:01;;;;;;;9.63;7.07;;;4.40;99.90;;;;;;4994097;28;95855;-75
2022/12/09 00:07:28;;;;;;;11.27;7.43;;;4.40;99.90;;;;;;4995362;28;106545;-75
2022/12/09 00:09:55;;;;;;;9.73;7.20;;;4.40;99.90;;;;;;4978068;28;93037;-75
2022/12/09 00:12:22;;;;;;;11.90;6.72;;;4.40;99.90;;;;;;4962142;28;91768;-76
2022/12/09 00:14:49;;;;;;;10.43;7.45;;;4.40;99.90;;;;;;4995475;28;93316;-76
2022/12/09 00:17:16;;;;;;;11.85;7.35;;;4.40;99.90;;;;;;4977455;28;93033;-76
2022/12/09 00:19:44;;;;;;;11.80;7.88;;;4.40;99.90;;;;;;4994661;28;94866;-76
2022/12/09 00:22:11;;;;;;;10.35;6.72;;;4.40;99.90;;;;;;4994126;28;92546;-75
2022/12/09 00:24:38;;;;;;;14.52;7.55;;;4.40;99.90;;;;;;4994213;28;93203;-75
2022/12/09 00:27:05;;;;;;;11.35;6.88;;;4.30;99.90;;;;;;4995218;28;93330;-75
2022/12/09 00:29:32;;;;;;;9.30;6.95;;;4.30;99.90;;;;;;4977763;28;92498;-75
2022/12/09 00:31:59;;;;;;;12.00;7.22;;;4.30;99.90;;;;;;4995499;28;92515;-75
2022/12/09 00:34:27;;;;;;;9.98;7.57;;;4.30;99.90;;;;;;4980377;28;94733;-75
2022/12/09 00:36:53;;;;;;;8.02;6.18;;;4.20;99.90;;;;;;4981153;28;101855;-76
2022/12/09 00:39:20;;;;;;;10.05;6.97;;;4.20;99.90;;;;;;4981489;28;92482;-75
2022/12/09 00:41:48;;;;;;;10.43;7.30;;;4.20;99.90;;;;;;4981139;28;92491;-75
2022/12/09 00:44:16;;;;;;;11.38;7.53;;;4.20;99.90;;;;;;4997127;28;95804;-75
2022/12/09 00:46:43;;;;;;;9.27;7.18;;;4.20;99.90;;;;;;4980774;28;97881;-76
2022/12/09 00:49:11;;;;;;;10.95;8.00;;;4.20;99.90;;;;;;4997396;28;92432;-75
2022/12/09 00:51:38;;;;;;;10.88;8.23;;;4.10;99.90;;;;;;4997504;28;92555;-76
2022/12/09 00:54:05;;;;;;;11.38;7.32;;;4.10;99.90;;;;;;4980696;28;95798;-75
2022/12/09 00:56:32;;;;;;;10.35;7.70;;;4.10;99.90;;;;;;4997009;28;95388;-75
2022/12/09 00:58:59;;;;;;;13.00;8.27;;;4.10;99.90;;;;;;4980468;28;92490;-75
2022/12/09 01:01:27;;;;;;;11.30;7.75;;;4.10;99.90;;;;;;4998823;28;91691;-75
2022/12/09 01:03:55;;;;;;;11.07;7.68;;;4.00;99.90;;;;;;4996973;28;95356;-75
2022/12/09 01:06:24;;;;;;;9.88;8.02;;;4.00;99.90;;;;;;4996882;28;95506;-75
2022/12/09 01:08:52;;;;;;;11.93;8.50;;;4.00;99.90;;;;;;4997296;28;94766;-75
2022/12/09 01:11:22;;;;;;;11.88;7.93;;;4.00;99.90;;;;;;4996740;28;92484;-75
2022/12/09 01:13:50;;;;;;;14.00;8.60;;;4.00;99.90;;;;;;4980642;28;95841;-75
2022/12/09 01:16:20;;;;;;;11.35;8.10;;;4.00;99.90;;;;;;4998081;28;93168;-75
2022/12/09 01:18:48;;;;;;;14.70;7.78;;;4.00;99.90;;;;;;4998434;28;92492;-75
2022/12/09 01:21:16;;;;;;;11.05;8.00;;;4.00;99.90;;;;;;4996893;28;92490;-75
2022/12/09 01:23:43;;;;;;;13.88;7.95;;;4.00;99.90;;;;;;4997222;28;93237;-75
2022/12/09 01:26:10;;;;;;;11.02;8.27;;;4.00;99.90;;;;;;4980482;28;95610;-75
2022/12/09 01:28:38;;;;;;;15.38;8.13;;;4.00;99.90;;;;;;4998362;28;93035;-75
2022/12/09 01:31:07;;;;;;;14.60;8.75;;;4.00;99.90;;;;;;4997991;28;92475;-75
2022/12/09 01:33:34;;;;;;;13.55;7.93;;;3.90;99.90;;;;;;4995495;28;95694;-75
2022/12/09 01:36:06;;;;;;;15.23;8.40;;;3.90;99.90;;;;;;4979712;28;112392;-75
2022/12/09 01:38:34;;;;;;;11.93;7.75;;;3.80;99.90;;;;;;4996571;28;92501;-75
2022/12/09 01:41:01;;;;;;;13.23;8.25;;;3.70;99.90;;;;;;4996620;28;92739;-75
2022/12/09 01:43:28;;;;;;;12.50;8.45;;;3.70;99.90;;;;;;4979817;28;95978;-75
2022/12/09 01:45:58;;;;;;;12.32;8.00;;;3.50;99.90;;;;;;4980102;28;95471;-75
2022/12/09 01:48:29;;;;;;;14.63;8.75;;;3.50;99.90;;;;;;4996577;28;92453;-75
2022/12/09 01:51:15;;;;;;;10.63;8.02;;;3.50;99.90;;;;;;4998639;28;92246;-75
2022/12/09 01:53:46;;;;;;;11.18;8.45;;;3.50;99.90;;;;;;4980217;28;95968;-75
2022/12/09 01:56:28;;;;;;;12.88;8.75;;;3.40;99.90;;;;;;4996130;28;95486;-75
2022/12/09 01:59:11;;;;;;;10.63;7.68;;;3.40;99.90;;;;;;4994888;28;94913;-75
2022/12/09 02:01:39;;;;;;;12.48;9.10;;;3.50;99.90;;;;;;5013120;28;92484;-75
2022/12/09 02:04:07;;;;;;;12.23;8.15;;;3.40;99.90;;;;;;4996393;28;95743;-75
2022/12/09 02:06:36;;;;;;;14.88;8.70;;;3.50;99.90;;;;;;4996144;28;95691;-75
2022/12/09 02:09:06;;;;;;;15.68;9.70;;;3.50;99.90;;;;;;4996275;28;92536;-75
2022/12/09 02:11:59;;;;;;;14.18;8.68;;;3.60;99.90;;;;;;4996197;28;93057;-75
2022/12/09 02:14:38;;;;;;;12.38;8.40;;;3.60;99.90;;;;;;4979323;28;95880;-75
2022/12/09 02:17:29;;;;;;;14.95;7.82;;;3.60;99.90;;;;;;4996228;28;95490;-75
2022/12/09 02:20:22;;;;;;;11.93;7.95;;;3.70;99.90;;;;;;4996157;28;92539;-75
2022/12/09 02:23:17;;;;;;;11.60;8.07;;;3.70;99.90;;;;;;4996122;28;92598;-75
2022/12/09 02:26:18;;;;;;;11.52;8.27;;;3.80;99.90;;;;;;4994710;28;98045;-75
2022/12/09 02:28:48;;;;;;;13.48;8.80;;;3.80;99.90;;;;;;4996192;28;95363;-75
2022/12/09 02:31:25;;;;;;;15.73;8.75;;;3.80;99.90;;;;;;4979287;28;92664;-75
2022/12/09 02:34:08;;;;;;;14.45;8.00;;;3.80;99.90;;;;;;4996036;28;92566;-75
2022/12/09 02:36:44;;;;;;;14.32;8.90;;;3.90;99.90;;;;;;5012165;28;95530;-75
2022/12/09 02:39:10;;;;;;;12.45;8.10;;;3.90;99.90;;;;;;4979299;28;95615;-75
2022/12/09 02:41:42;;;;;;;12.95;8.32;;;3.80;99.90;;;;;;4996128;28;92560;-75
2022/12/09 02:44:16;;;;;;;13.25;8.48;;;3.90;99.90;;;;;;4979598;28;91750;-75
2022/12/09 02:46:45;;;;;;;14.10;8.35;;;3.90;99.90;;;;;;4995921;28;93391;-75
2022/12/09 02:49:14;;;;;;;13.52;8.48;;;3.80;99.90;;;;;;4978944;28;95615;-75
2022/12/09 02:51:43;;;;;;;13.88;8.88;;;3.70;99.90;;;;;;4995896;28;94983;-75
2022/12/09 02:54:16;;;;;;;12.75;9.15;;;3.70;99.90;;;;;;4995522;28;92551;-75
2022/12/09 02:56:51;;;;;;;13.25;7.65;;;3.70;99.90;;;;;;4994635;28;95906;-75
2022/12/09 02:59:20;;;;;;;13.45;7.93;;;3.60;99.90;;;;;;4996411;28;93033;-75
2022/12/09 03:02:12;;;;;;;14.77;9.02;;;3.60;99.90;;;;;;4996593;28;92474;-75
2022/12/09 03:04:43;;;;;;;13.15;8.80;;;3.60;99.90;;;;;;4995169;28;92453;-75
2022/12/09 03:07:22;;;;;;;18.02;8.98;;;3.60;99.90;;;;;;4979202;28;96694;-75
2022/12/09 03:09:57;;;;;;;12.77;8.80;;;3.70;99.90;;;;;;4996996;28;91640;-75
2022/12/09 03:12:31;;;;;;;15.88;8.70;;;3.60;99.90;;;;;;4996371;28;92511;-75
2022/12/09 03:15:01;;;;;;;;;;;3.60;99.90;;;;;;4979146;28;92424;-75
2022/12/09 03:17:34;;;;;;;13.90;8.15;;;3.60;99.90;;;;;;4995928;28;95611;-75
2022/12/09 03:20:07;;;;;;;13.02;8.52;;;3.60;99.90;;;;;;4996529;28;95352;-75
2022/12/09 03:22:36;;;;;;;12.13;8.55;;;3.60;99.90;;;;;;4995052;28;92581;-75
2022/12/09 03:25:21;;;;;;;13.27;8.77;;;3.60;99.90;;;;;;4978205;28;92529;-75
2022/12/09 03:28:09;;;;;;;13.13;8.68;;;3.60;99.90;;;;;;4995313;28;92567;-75
2022/12/09 03:30:40;;;;;;;12.93;9.00;;;3.60;99.90;;;;;;4996364;28;92857;-75
2022/12/09 03:33:08;;;;;;;16.92;9.23;;;3.60;99.90;;;;;;4996216;28;92936;-75
2022/12/09 03:35:41;;;;;;;12.23;8.77;;;3.60;99.90;;;;;;4996536;28;92110;-75
2022/12/09 03:38:13;;;;;;;14.07;8.68;;;3.60;99.90;;;;;;4994458;28;95869;-75
2022/12/09 03:40:41;;;;;;;12.98;8.32;;;3.60;99.90;;;;;;4995142;28;93117;-75
2022/12/09 03:43:17;;;;;;;12.63;9.23;;;3.60;99.90;;;;;;4994839;28;94844;-75
2022/12/09 03:45:45;;;;;;;15.10;9.55;;;3.50;99.90;;;;;;4995833;28;92349;-75
2022/12/09 03:48:13;;;;;;;16.10;10.40;;;3.50;99.90;;;;;;4994708;28;93204;-75
2022/12/09 03:50:55;;;;;;;16.08;9.57;;;3.40;99.90;;;;;;4994021;28;93035;-75
2022/12/09 03:53:30;;;;;;;14.05;9.15;;;3.40;99.90;;;;;;4996212;28;92369;-75
2022/12/09 03:56:07;;;;;;;16.23;11.25;;;3.30;99.90;;;;;;4994729;28;92490;-75
2022/12/09 03:58:38;;;;;;;17.50;12.50;;;3.20;99.90;;;;;;4994779;28;93198;-75
2022/12/09 04:01:06;;;;;;;17.45;9.55;;;3.10;99.90;;;;;;4995725;28;93227;-75
2022/12/09 04:03:34;;;;;;;18.20;9.98;;;3.00;99.90;;;;;;4994260;28;92406;-75
2022/12/09 04:06:01;;;;;;;13.75;9.20;;;3.00;99.90;;;;;;4977768;28;92541;-75
2022/12/09 04:08:28;;;;;;;18.83;10.43;;;2.90;99.90;;;;;;4992024;28;95445;-75
2022/12/09 04:10:55;;;;;;;18.08;10.57;;;2.80;99.90;;;;;;4976925;28;97225;-75
2022/12/09 04:13:22;;;;;;;18.65;11.35;;;2.80;99.90;;;;;;4993909;28;92359;-75
2022/12/09 04:15:49;;;;;;;19.83;12.18;;;2.70;99.90;;;;;;4994614;28;99644;-75
2022/12/09 04:18:17;;;;;;;25.27;11.63;;;2.70;99.90;;;;;;5010506;28;92601;-75
2022/12/09 04:20:43;;;;;;;18.73;10.50;;;2.60;99.90;;;;;;4993504;28;92993;-75
2022/12/09 04:23:11;;;;;;;17.30;10.43;;;2.50;99.90;;;;;;4994950;28;92465;-75
2022/12/09 04:25:38;;;;;;;15.63;9.82;;;2.50;99.90;;;;;;4993833;28;92104;-75
2022/12/09 04:28:05;;;;;;;17.83;10.50;;;2.40;99.90;;;;;;4994420;28;93275;-75
2022/12/09 04:30:32;;;;;;;15.45;9.82;;;2.40;99.90;;;;;;4993499;28;93035;-75
2022/12/09 04:33:00;;;;;;;16.83;10.68;;;2.40;99.90;;;;;;4994542;28;95215;-75
2022/12/09 04:35:27;;;;;;;18.30;10.57;;;2.30;99.90;;;;;;4994918;28;93180;-75
2022/12/09 04:37:54;;;;;;;17.75;10.75;;;2.30;99.90;;;;;;4994196;28;92936;-75
2022/12/09 04:40:21;;;;;;;19.58;11.15;;;2.30;99.90;;;;;;4994792;28;93126;-75
2022/12/09 04:42:50;;;;;;;16.75;10.65;;;2.30;99.90;;;;;;4994740;28;92511;-75
2022/12/09 04:45:17;;;;;;;17.60;10.50;;;2.30;99.90;;;;;;4993175;28;103117;-75
2022/12/09 04:47:44;;;;;;;19.67;10.75;;;2.30;99.90;;;;;;4992926;28;95678;-75
2022/12/09 04:50:11;;;;;;;16.60;9.35;;;2.20;99.90;;;;;;4995248;28;93087;-75
2022/12/09 04:52:39;;;;;;;19.85;10.90;;;2.20;99.90;;;;;;4995236;28;92416;-75
2022/12/09 04:55:07;;;;;;;19.67;11.15;;;2.10;99.90;;;;;;4994754;28;92476;-75
2022/12/09 04:57:34;;;;;;;17.83;10.57;;;2.10;99.90;;;;;;4991655;28;95769;-75
2022/12/09 05:00:04;;;;;;;17.83;10.43;;;2.00;99.90;;;;;;4994383;28;95398;-75
2022/12/09 05:02:31;;;;;;;17.90;11.35;;;1.90;99.90;;;;;;4994668;28;92342;-75
2022/12/09 05:05:01;;;;;;;19.10;10.80;;;1.80;99.90;;;;;;4993227;28;92573;-75
2022/12/09 05:07:32;;;;;;;20.45;11.18;;;1.80;99.90;;;;;;4994345;28;92473;-75
2022/12/09 05:09:59;;;;;;;20.13;11.68;;;1.70;99.90;;;;;;4992922;28;95851;-75
2022/12/09 05:12:27;;;;;;;19.33;11.05;;;1.60;99.90;;;;;;4993206;28;92525;-75
2022/12/09 05:14:54;;;;;;;21.38;12.30;;;1.60;99.90;;;;;;4993252;28;91798;-75
2022/12/09 05:17:21;;;;;;;23.10;12.35;;;1.50;99.90;;;;;;4994089;28;93162;-75
2022/12/09 05:19:49;;;;;;;22.92;11.45;;;1.50;99.90;;;;;;4994758;28;93174;-75
2022/12/09 05:22:17;;;;;;;21.60;12.32;;;1.50;99.90;;;;;;4995504;28;94866;-75
2022/12/09 05:24:45;;;;;;;21.83;12.07;;;1.40;99.90;;;;;;4996389;28;92439;-75
2022/12/09 05:27:14;;;;;;;20.17;10.88;;;1.40;99.90;;;;;;4996047;28;103938;-75
2022/12/09 05:29:41;;;;;;;19.63;11.25;;;1.30;99.90;;;;;;4996216;28;92949;-75
2022/12/09 05:32:08;;;;;;;23.30;12.32;;;1.30;99.90;;;;;;4997752;28;92448;-75
2022/12/09 05:34:35;;;;;;;27.48;12.50;;;1.20;99.90;;;;;;4979782;28;92448;-75
2022/12/09 05:37:03;;;;;;;20.83;11.43;;;1.20;99.90;;;;;;4996143;28;93259;-75
2022/12/09 05:39:30;;;;;;;22.67;11.93;;;1.20;99.90;;;;;;4996305;28;95718;-75
2022/12/09 05:41:57;;;;;;;26.88;12.50;;;1.10;99.90;;;;;;4997599;28;92614;-75
2022/12/09 05:44:24;;;;;;;24.88;11.93;;;1.10;99.90;;;;;;4980012;28;92541;-75
2022/12/09 05:46:51;;;;;;;22.92;12.45;;;1.10;99.90;;;;;;4994603;28;95377;-75
2022/12/09 05:49:18;;;;;;;24.77;12.45;;;1.10;99.90;;;;;;4979473;28;98164;-75
2022/12/09 05:51:46;;;;;;;25.33;12.98;;;1.00;99.90;;;;;;4997470;28;92437;-75
2022/12/09 05:54:13;;;;;;;26.95;13.25;;;1.00;99.90;;;;;;4997498;28;92463;-74
2022/12/09 05:56:40;;;;;;;26.67;13.32;;;1.00;99.90;;;;;;5012477;28;93186;-75
2022/12/09 05:59:13;;;;;;;23.87;12.90;;;0.90;99.90;;;;;;4993458;28;95527;-75
2022/12/09 06:01:40;;;;;;;24.73;14.05;;;0.90;99.90;;;;;;4995860;28;92356;-75
2022/12/09 06:04:07;;;;;;;25.85;13.07;;;0.90;99.90;;;;;;4996380;28;91690;-75
2022/12/09 06:06:35;;;;;;;28.55;14.25;;;0.80;99.90;;;;;;4997098;28;93451;-74
2022/12/09 06:09:02;;;;;;;25.25;13.43;;;0.80;99.90;;;;;;4978963;28;95675;-75
2022/12/09 06:11:31;;;;;;;27.13;14.20;;;0.80;99.90;;;;;;4994799;28;94896;-75
2022/12/09 06:13:58;;;;;;;27.00;14.43;;;0.80;99.90;;;;;;4978869;28;92456;-75
2022/12/09 06:16:25;;;;;;;23.48;13.82;;;0.80;99.90;;;;;;4995794;28;93237;-75
2022/12/09 06:18:53;;;;;;;29.90;14.95;;;0.70;99.90;;;;;;4996705;28;93933;-75
2022/12/09 06:21:21;;;;;;;31.35;14.50;;;0.70;99.90;;;;;;5012278;28;92425;-74
2022/12/09 06:23:49;;;;;;;29.92;14.77;;;0.70;99.90;;;;;;4978952;28;92484;-75
2022/12/09 06:26:28;;;;;;;32.20;15.77;;;0.70;99.90;;;;;;4995520;28;93294;-75
2022/12/09 06:28:56;;;;;;;34.85;15.20;;;0.70;99.90;;;;;;4996978;28;92965;-75
2022/12/09 06:31:24;;;;;;;30.15;14.45;;;0.70;99.90;;;;;;4995854;28;92368;-75
2022/12/09 06:33:52;;;;;;;29.77;15.00;;;0.70;99.90;;;;;;4995241;28;92434;-74
2022/12/09 06:36:21;;;;;;;26.85;14.90;;;0.60;99.90;;;;;;4995017;28;95659;-74
2022/12/09 06:38:49;;;;;;;30.80;14.50;;;0.60;99.90;;;;;;4994469;28;103834;-74
2022/12/09 06:41:16;;;;;;;31.38;15.60;;;0.60;99.90;;;;;;4978837;28;92515;-74
2022/12/09 06:43:43;;;;;;;32.55;15.50;;;0.60;99.90;;;;;;4995336;28;92514;-74
2022/12/09 06:46:21;;;;;;;28.83;15.07;;;0.60;99.90;;;;;;5011468;28;93338;-74
2022/12/09 06:48:50;;;;;;;31.77;15.80;;;0.60;99.90;;;;;;4996262;28;92978;-74
2022/12/09 06:51:17;;;;;;;36.72;16.17;;;0.60;99.90;;;;;;4995232;28;92519;-74
2022/12/09 06:53:45;;;;;;;31.70;15.25;;;0.60;99.90;;;;;;4979295;28;92131;-74
2022/12/09 06:56:13;;;;;;;35.17;16.90;;;0.60;99.90;;;;;;4995986;28;93245;-74
2022/12/09 06:58:42;;;;;;;33.70;15.93;;;0.50;99.90;;;;;;4978754;28;93144;-74
2022/12/09 07:01:12;;;;;;;33.35;15.52;;;0.50;99.90;;;;;;4993368;28;94871;-74
2022/12/09 07:03:41;;;;;;;35.22;16.27;;;0.50;99.90;;;;;;4995077;28;92426;-74
2022/12/09 07:06:27;;;;;;;33.35;15.20;;;0.50;99.90;;;;;;4994536;28;93222;-74
2022/12/09 07:08:56;;;;;;;34.40;16.08;;;0.50;99.90;;;;;;4978097;28;95744;-74
2022/12/09 07:11:24;;;;;;;33.38;15.90;;;0.40;99.90;;;;;;4996055;28;92481;-74
2022/12/09 07:13:51;;;;;;;43.20;16.77;;;0.40;99.90;;;;;;4994915;28;92449;-74
2022/12/09 07:16:18;;;;;;;37.13;16.92;;;0.30;99.90;;;;;;4994494;28;95700;-74
2022/12/09 07:18:45;;;;;;;37.20;17.13;;;0.30;99.90;;;;;;5011479;28;93773;-74
2022/12/09 07:21:15;;;;;;;36.30;17.42;;;0.30;99.90;;;;;;4961883;28;92410;-74
2022/12/09 07:23:43;;;;;;;35.22;16.92;;;0.30;99.90;;;;;;4995780;28;93002;-74
2022/12/09 07:26:11;;;;;;;37.65;17.55;;;0.30;99.90;;;;;;4960340;28;97023;-74
2022/12/09 07:28:41;;;;;;;36.83;17.25;;;0.30;99.90;;;;;;4994346;28;95433;-74
2022/12/09 07:31:25;;;;;;;38.33;17.40;;;0.30;99.90;;;;;;4995369;28;92435;-74
2022/12/09 07:33:54;;;;;;;40.17;16.60;;;0.40;99.90;;;;;;4995935;28;92439;-74
2022/12/09 07:36:24;;;;;;;39.92;17.17;;;0.30;99.90;;;;;;4994422;28;93312;-74
2022/12/09 07:39:00;;;;;;;42.75;16.98;;;0.30;99.90;;;;;;4994049;28;96465;-74
2022/12/09 07:41:28;;;;;;;37.13;17.85;;;0.40;99.90;;;;;;4995375;28;92518;-74
2022/12/09 07:43:55;;;;;;;38.63;17.40;;;0.30;99.90;;;;;;4996046;28;91677;-74
2022/12/09 07:46:26;;;;;;;38.15;17.38;;;0.30;99.90;;;;;;4994326;28;93238;-74
2022/12/09 07:48:54;;;;;;;42.50;18.65;;;0.30;99.90;;;;;;4994489;28;92887;-74
2022/12/09 07:51:23;;;;;;;38.80;18.35;;;0.30;99.90;;;;;;4992953;28;94856;-75
2022/12/09 07:53:51;;;;;;;38.13;18.25;;;0.30;99.90;;;;;;4977968;28;92630;-75
2022/12/09 07:56:18;;;;;;;38.28;18.05;;;0.30;99.90;;;;;;4993913;28;92867;-75
2022/12/09 07:58:47;;;;;;;37.88;17.83;;;0.40;99.90;;;;;;4995277;28;93205;-74
2022/12/09 08:01:17;;;;;;;38.25;18.67;;;0.40;99.90;;;;;;4993922;28;93543;-74
2022/12/09 08:03:45;;;;;;;44.53;19.98;;;0.40;99.90;;;;;;4994316;28;92504;-74
2022/12/09 08:06:15;;;;;;;42.35;19.70;;;0.40;99.90;;;;;;4960913;28;93428;-74
2022/12/09 08:08:43;;;;;;;39.97;20.10;;;0.40;99.90;;;;;;4995311;28;93087;-74
2022/12/09 08:11:12;;;;;;;38.17;17.35;;;0.50;99.90;;;;;;4995117;28;92965;-74
2022/12/09 08:13:42;;;;;;;34.33;16.70;;;0.50;99.90;;;;;;4993858;28;92557;-74
2022/12/09 08:16:12;;;;;;;44.33;18.38;;;0.50;99.90;;;;;;4993711;28;96738;-74
2022/12/09 08:18:40;;;;;;;42.33;18.27;;;0.60;99.90;;;;;;4994690;28;95367;-74
2022/12/09 08:21:13;;;;;;;38.92;18.15;;;0.60;99.90;;;;;;4993583;28;92486;-75
2022/12/09 08:23:40;;;;;;;37.13;17.70;;;0.60;99.90;;;;;;4993785;28;92355;-75
2022/12/09 08:26:10;;;;;;;40.22;19.38;;;0.60;99.90;;;;;;4993475;28;93183;-75
2022/12/09 08:28:37;;;;;;;46.03;20.45;;;0.70;99.90;;;;;;4994658;28;93658;-75
2022/12/09 08:31:11;;;;;;;42.75;19.27;;;0.80;99.90;;;;;;4993696;28;92398;-74
2022/12/09 08:33:38;;;;;;;42.72;18.58;;;0.90;99.90;;;;;;4995045;28;91564;-74
2022/12/09 08:36:13;;;;;;;36.65;17.73;;;0.90;99.90;;;;;;4994767;28;93204;-74
2022/12/09 08:38:40;;;;;;;37.47;18.42;;;1.00;99.90;;;;;;4993694;28;93150;-74
2022/12/09 08:41:33;;;;;;;36.13;17.88;;;1.00;99.90;;;;;;5008603;28;94936;-74
2022/12/09 08:44:10;;;;;;;38.45;17.95;;;1.10;99.90;;;;;;4994836;28;92435;-74
2022/12/09 08:46:39;;;;;;;36.47;17.85;;;1.10;99.90;;;;;;4994855;28;93319;-74
2022/12/09 08:49:07;;;;;;;34.53;17.17;;;1.20;99.90;;;;;;4993145;28;93064;-73
2022/12/09 08:51:35;;;;;;;39.25;17.80;;;1.20;99.90;;;;;;4994729;28;92336;-74
2022/12/09 08:54:03;;;;;;;40.47;18.95;;;1.30;99.90;;;;;;4995673;28;92927;-74
2022/12/09 08:56:31;;;;;;;41.33;18.67;;;1.40;99.90;;;;;;4996506;28;93147;-74
2022/12/09 08:58:58;;;;;;;43.60;20.05;;;1.40;99.90;;;;;;4997026;28;93074;-74
2022/12/09 09:01:31;;;;;;;43.15;20.30;;;1.50;99.90;;;;;;4996352;28;92404;-74
2022/12/09 09:04:07;;;;;;;47.63;20.95;;;1.60;99.90;;;;;;4996989;28;93137;-74
2022/12/09 09:06:37;;;;;;;42.30;20.00;;;1.60;99.90;;;;;;4995625;28;98421;-74
2022/12/09 09:09:06;;;;;;;43.67;20.42;;;1.70;99.90;;;;;;4997790;28;95649;-74
2022/12/09 09:11:34;;;;;;;47.78;21.40;;;1.70;99.90;;;;;;4997743;28;92475;-74
2022/12/09 09:14:03;;;;;;;40.45;19.10;;;1.80;99.90;;;;;;4997827;28;92448;-74
2022/12/09 09:16:30;;;;;;;48.88;21.55;;;1.80;99.90;;;;;;4997791;28;93014;-74
2022/12/09 09:18:58;;;;;;;46.25;21.40;;;1.90;99.90;;;;;;4997667;28;93105;-74
2022/12/09 09:21:25;;;;;;;44.85;21.65;;;2.00;99.90;;;;;;4979792;28;92439;-74
2022/12/09 09:23:52;;;;;;;45.03;22.10;;;2.00;99.90;;;;;;4996845;28;92400;-74
2022/12/09 09:26:23;;;;;;;49.50;22.77;;;2.10;99.90;;;;;;4996025;28;95892;-74
2022/12/09 09:28:51;;;;;;;45.33;21.73;;;2.10;99.90;;;;;;4996607;28;93216;-74
2022/12/09 09:31:20;;;;;;;47.28;21.58;;;2.20;99.90;;;;;;4995270;28;94975;-74
2022/12/09 09:33:48;;;;;;;56.83;24.23;;;2.20;99.90;;;;;;4997732;28;92511;-75
2022/12/09 09:36:19;;;;;;;58.90;22.27;;;2.30;99.90;;;;;;4995672;28;93491;-75
2022/12/09 09:38:47;;;;;;;70.05;25.05;;;2.30;99.90;;;;;;4996060;28;95563;-75
2022/12/09 09:41:39;;;;;;;106.00;24.52;;;2.40;99.90;;;;;;4996206;28;92507;-75
2022/12/09 09:44:33;;;;;;;185.88;27.50;;;2.50;99.90;;;;;;5012632;28;92546;-75
2022/12/09 09:47:04;;;;;;;139.82;27.05;;;2.60;99.90;;;;;;4995806;28;94227;-75
2022/12/09 09:49:46;;;;;;;173.65;26.75;;;2.70;99.90;;;;;;4996055;28;93953;-75
2022/12/09 09:52:17;;;;;;;218.32;28.90;;;2.80;99.90;;;;;;4996144;28;92460;-75
2022/12/09 09:54:45;;;;;;;139.15;26.30;;;2.80;99.90;;;;;;4997614;28;92941;-75
2022/12/09 09:57:59;;;;;;;178.85;28.13;;;2.90;99.90;;;;;;4995838;28;95783;-75
2022/12/09 10:00:42;;;;;;;203.45;27.05;;;3.00;99.90;;;;;;4991241;28;95581;-75
2022/12/09 10:03:41;;;;;;;180.93;27.10;;;3.00;99.90;;;;;;4995741;28;92669;-75
2022/12/09 10:06:34;;;;;;;162.73;27.35;;;3.00;99.90;;;;;;5011136;28;92413;-75
2022/12/09 10:09:03;;;;;;;157.95;26.23;;;3.20;99.90;;;;;;4979088;28;96206;-75
2022/12/09 10:11:37;;;;;;;194.73;28.65;;;3.20;99.90;;;;;;4996637;28;93012;-75
2022/12/09 10:14:26;;;;;;;186.43;28.88;;;3.30;99.90;;;;;;4995977;28;92459;-75
2022/12/09 10:17:12;;;;;;;182.02;28.25;;;3.30;99.90;;;;;;4996410;28;92333;-75
2022/12/09 10:19:49;;;;;;;183.85;27.00;;;3.40;99.90;;;;;;4996686;28;93232;-77
2022/12/09 10:22:24;;;;;;;130.00;26.52;;;3.40;99.90;;;;;;4996906;28;93081;-75
2022/12/09 10:24:56;;;;;;;123.07;25.15;;;3.40;99.90;;;;;;4995754;28;95361;-75
2022/12/09 10:27:40;;;;;;;150.57;27.95;;;3.40;99.90;;;;;;4996935;28;92487;-75
2022/12/09 10:30:13;;;;;;;115.45;26.10;;;3.50;99.90;;;;;;4996822;28;93444;-75
2022/12/09 10:32:41;;;;;;;122.57;26.60;;;3.50;99.90;;;;;;4993483;28;94659;-75
2022/12/09 10:35:21;;;;;;;148.00;27.25;;;3.50;99.90;;;;;;4995351;28;92509;-75
2022/12/09 10:37:51;;;;;;;109.95;28.35;;;3.50;99.90;;;;;;4995133;28;92492;-75
2022/12/09 10:40:20;;;;;;;186.02;28.92;;;3.60;99.90;;;;;;4996497;28;93195;-75
2022/12/09 10:45:50;;;;;;;122.10;26.02;;;3.80;99.90;;;;;;4996410;28;92999;-75
2022/12/09 10:48:47;;;;;;;98.68;26.42;;;3.80;99.90;;;;;;4994810;28;92489;-75
2022/12/09 10:51:18;;;;;;;115.63;25.08;;;3.80;99.90;;;;;;4993153;28;95780;-75
2022/12/09 10:53:54;;;;;;;79.55;25.55;;;3.90;99.90;;;;;;4996174;28;95397;-75
2022/12/09 10:56:31;;;;;;;83.70;22.38;;;3.90;99.90;;;;;;4996452;28;92494;-75
2022/12/09 10:59:25;;;;;;;73.63;21.75;;;3.90;99.90;;;;;;4996650;28;92346;-75
2022/12/09 11:01:58;;;;;;;88.03;22.65;;;4.00;99.90;;;;;;4996180;28;92515;-75
2022/12/09 11:04:33;;;;;;;111.90;23.88;;;4.00;99.90;;;;;;4994473;28;95651;-75
2022/12/09 11:07:11;;;;;;;74.45;21.98;;;4.00;99.90;;;;;;4994781;28;92492;-75
2022/12/09 11:09:40;;;;;;;62.72;23.25;;;3.90;99.90;;;;;;4978504;28;91685;-75
2022/12/09 11:12:33;;;;;;;90.50;24.10;;;3.90;99.90;;;;;;4994410;28;95884;-75
2022/12/09 11:15:28;;;;;;;84.95;23.98;;;3.90;99.90;;;;;;4996208;28;92979;-75
2022/12/09 11:18:16;;;;;;;71.18;23.35;;;3.90;99.90;;;;;;4993524;28;94837;-75
2022/12/09 11:21:03;;;;;;;66.32;21.55;;;3.90;99.90;;;;;;4977724;28;92622;-75
2022/12/09 11:23:31;;;;;;;83.80;23.80;;;4.00;99.90;;;;;;4995601;28;93174;-75
2022/12/09 11:26:02;;;;;;;74.22;22.13;;;3.90;99.90;;;;;;4994525;28;93249;-75
2022/12/09 11:28:32;;;;;;;59.08;23.58;;;4.00;99.90;;;;;;4994386;28;92445;-75
2022/12/09 11:31:16;;;;;;;78.43;25.27;;;4.00;99.90;;;;;;4995649;28;92880;-75
2022/12/09 11:33:59;;;;;;;63.72;23.90;;;4.00;99.90;;;;;;4995486;28;93261;-75
2022/12/09 11:36:36;;;;;;;53.67;23.98;;;4.00;99.90;;;;;;4996249;28;93021;-75
2022/12/09 11:39:14;;;;;;;66.70;23.45;;;4.00;99.90;;;;;;4994292;28;92613;-75
2022/12/09 11:44:43;;;;;;;46.70;22.30;;;4.00;99.90;;;;;;4994042;28;95660;-75
2022/12/09 11:47:18;;;;;;;55.70;23.33;;;4.00;99.90;;;;;;5010862;28;95333;-75
2022/12/09 11:50:00;;;;;;;55.40;24.55;;;4.10;99.90;;;;;;4995261;28;92430;-75
2022/12/09 11:52:29;;;;;;;52.97;23.88;;;4.10;99.90;;;;;;4995349;28;92476;-75
2022/12/09 11:54:59;;;;;;;47.20;22.98;;;4.10;99.90;;;;;;4995102;28;93172;-75
2022/12/09 11:57:53;;;;;;;53.88;22.58;;;4.10;99.90;;;;;;4995403;28;93035;-75
2022/12/09 12:00:38;;;;;;;47.60;22.73;;;4.20;99.90;;;;;;4985214;28;92530;-75
2022/12/09 12:03:17;;;;;;;48.75;23.73;;;4.20;99.90;;;;;;4978034;28;91789;-75
2022/12/09 12:05:50;;;;;;;49.05;23.67;;;4.20;99.90;;;;;;4977110;28;96082;-75
2022/12/09 12:08:20;;;;;;;48.87;24.20;;;4.20;99.90;;;;;;4993862;28;95674;-75
2022/12/09 12:11:00;;;;;;;40.33;21.77;;;4.20;99.90;;;;;;4993653;28;94944;-75
2022/12/09 12:13:32;;;;;;;46.25;23.95;;;4.30;99.90;;;;;;4994059;28;92584;-75
2022/12/09 12:16:11;;;;;;;48.72;25.08;;;4.30;99.90;;;;;;4995181;28;93083;-75
2022/12/09 12:19:01;;;;;;;48.58;23.73;;;4.30;99.90;;;;;;4993940;28;93090;-75
2022/12/09 12:22:13;;;;;;;46.20;24.50;;;4.30;99.90;;;;;;4977281;28;92529;-75
2022/12/09 12:25:18;;;;;;;43.25;22.92;;;4.30;99.90;;;;;;4933629;28;93064;-75
2022/12/09 12:28:10;;;;;;;47.00;22.50;;;4.30;99.90;;;;;;4933417;28;93289;-75
2022/12/09 12:31:06;;;;;;;41.88;21.75;;;4.30;99.90;;;;;;4989131;28;93044;-75
2022/12/09 12:33:44;;;;;;;41.80;21.90;;;4.40;99.90;;;;;;4968928;28;92994;-75
2022/12/09 12:36:40;;;;;;;44.63;22.65;;;4.40;99.90;;;;;;4994174;28;92460;-75
2022/12/09 12:39:18;;;;;;;43.45;21.80;;;4.50;99.90;;;;;;4993723;28;95452;-75
2022/12/09 12:42:02;;;;;;;42.83;21.80;;;4.60;99.90;;;;;;4994398;28;96182;-75
2022/12/09 12:47:32;;;;;;;42.05;22.02;;;4.50;99.90;;;;;;4994365;28;92888;-75
2022/12/09 12:50:46;;;;;;;42.80;21.88;;;4.60;99.90;;;;;;4994835;28;92991;-75
2022/12/09 12:53:17;;;;;;;42.70;22.30;;;4.60;99.90;;;;;;4933392;28;94077;-75
2022/12/09 12:55:46;;;;;;;43.38;22.17;;;4.60;99.90;;;;;;4987379;28;92510;-75
2022/12/09 12:58:30;;;;;;;42.28;21.40;;;4.60;99.90;;;;;;4995060;28;91752;-75
2022/12/09 13:01:18;;;;;;;42.75;23.50;;;4.70;99.90;;;;;;4992856;28;93451;-75
2022/12/09 13:04:10;;;;;;;42.17;22.33;;;4.80;99.90;;;;;;4976391;28;95436;-75
2022/12/09 13:06:49;;;;;;;40.80;21.00;;;4.70;99.90;;;;;;4991869;28;94866;-75
2022/12/09 13:09:46;;;;;;;37.45;21.17;;;4.70;99.90;;;;;;4992727;28;92491;-75
2022/12/09 13:12:52;;;;;;;39.13;21.63;;;4.70;99.90;;;;;;4992913;28;95921;-75
2022/12/09 13:15:13;;;;;;;39.38;20.85;;;4.60;99.90;;;;;;4993953;28;93058;-75
2022/12/09 13:17:41;;;;;;;44.17;22.27;;;4.60;99.90;;;;;;4994581;28;92451;-75